sensor_id;sensor_type;location;lat;lon;timestamp;P1;durP1;ratioP1;P2;durP2;ratioP2
17520;SDS011;8878;-33.370;-70.552;2022-10-04T00:01:47;3.50;;;1.90;;
17520;SDS011;8878;-33.370;-70.552;2022-10-04T00:04:19;2.40;;;2.20;;
17520;SDS011;8878;-33.370;-70.552;2022-10-04T00:06:56;1.37;;;0.93;;
17520;SDS011;8878;-33.370;-70.552;2022-10-04T00:09:31;2.03;;;1.80;;
17520;SDS011;8878;-33.370;-70.552;2022-10-04T00:12:13;1.50;;;1.40;;
17520;SDS011;8878;-33.370;-70.552;2022-10-04T00:14:49;3.93;;;1.50;;
17520;SDS011;8878;-33.370;-70.552;2022-10-04T00:17:22;2.50;;;1.30;;
17520;SDS011;8878;-33.370;-70.552;2022-10-04T00:19:54;2.43;;;2.10;;
17520;SDS011;8878;-33.370;-70.552;2022-10-04T00:22:27;3.03;;;1.90;;
17520;SDS011;8878;-33.370;-70.552;2022-10-04T00:25:01;2.03;;;1.77;;
17520;SDS011;8878;-33.370;-70.552;2022-10-04T00:31:23;3.07;;;1.97;;
17520;SDS011;8878;-33.370;-70.552;2022-10-04T00:33:55;1.43;;;1.17;;
17520;SDS011;8878;-33.370;-70.552;2022-10-04T00:36:47;8.47;;;1.13;;
17520;SDS011;8878;-33.370;-70.552;2022-10-04T00:42:21;6.30;;;1.87;;
17520;SDS011;8878;-33.370;-70.552;2022-10-04T00:45:16;1.63;;;1.53;;
17520;SDS011;8878;-33.370;-70.552;2022-10-04T00:48:07;4.70;;;1.70;;
17520;SDS011;8878;-33.370;-70.552;2022-10-04T00:50:54;2.47;;;1.27;;
17520;SDS011;8878;-33.370;-70.552;2022-10-04T00:53:38;3.00;;;1.93;;
17520;SDS011;8878;-33.370;-70.552;2022-10-04T00:56:25;1.40;;;1.27;;
17520;SDS011;8878;-33.370;-70.552;2022-10-04T01:01:57;2.17;;;1.97;;
17520;SDS011;8878;-33.370;-70.552;2022-10-04T01:04:37;2.53;;;1.60;;
17520;SDS011;8878;-33.370;-70.552;2022-10-04T01:07:10;2.27;;;1.50;;
17520;SDS011;8878;-33.370;-70.552;2022-10-04T01:09:47;3.87;;;1.33;;
17520;SDS011;8878;-33.370;-70.552;2022-10-04T01:12:23;1.67;;;1.50;;
17520;SDS011;8878;-33.370;-70.552;2022-10-04T01:15:04;2.67;;;1.00;;
17520;SDS011;8878;-33.370;-70.552;2022-10-04T01:17:39;1.37;;;1.27;;
17520;SDS011;8878;-33.370;-70.552;2022-10-04T01:23:15;11.13;;;2.60;;
17520;SDS011;8878;-33.370;-70.552;2022-10-04T01:25:59;4.60;;;4.00;;
17520;SDS011;8878;-33.370;-70.552;2022-10-04T01:28:31;2.33;;;1.80;;
17520;SDS011;8878;-33.370;-70.552;2022-10-04T01:31:01;2.63;;;1.57;;
17520;SDS011;8878;-33.370;-70.552;2022-10-04T01:33:31;4.83;;;1.57;;
17520;SDS011;8878;-33.370;-70.552;2022-10-04T01:36:00;3.40;;;2.50;;
17520;SDS011;8878;-33.370;-70.552;2022-10-04T01:38:31;3.00;;;2.70;;
17520;SDS011;8878;-33.370;-70.552;2022-10-04T01:41:01;3.90;;;1.70;;
17520;SDS011;8878;-33.370;-70.552;2022-10-04T01:43:34;2.87;;;1.60;;
17520;SDS011;8878;-33.370;-70.552;2022-10-04T01:46:08;2.87;;;1.53;;
17520;SDS011;8878;-33.370;-70.552;2022-10-04T01:48:40;7.60;;;1.43;;
17520;SDS011;8878;-33.370;-70.552;2022-10-04T01:51:13;9.50;;;2.20;;
17520;SDS011;8878;-33.370;-70.552;2022-10-04T01:53:48;11.67;;;2.30;;
17520;SDS011;8878;-33.370;-70.552;2022-10-04T01:56:22;7.00;;;1.77;;
17520;SDS011;8878;-33.370;-70.552;2022-10-04T01:58:56;2.07;;;1.80;;
17520;SDS011;8878;-33.370;-70.552;2022-10-04T02:01:28;2.67;;;2.10;;
17520;SDS011;8878;-33.370;-70.552;2022-10-04T02:04:02;3.83;;;2.37;;
17520;SDS011;8878;-33.370;-70.552;2022-10-04T02:06:37;3.63;;;1.97;;
17520;SDS011;8878;-33.370;-70.552;2022-10-04T02:09:12;3.30;;;1.40;;
17520;SDS011;8878;-33.370;-70.552;2022-10-04T02:11:46;4.20;;;2.37;;
17520;SDS011;8878;-33.370;-70.552;2022-10-04T02:14:18;2.30;;;2.10;;
17520;SDS011;8878;-33.370;-70.552;2022-10-04T02:16:50;7.97;;;2.53;;
17520;SDS011;8878;-33.370;-70.552;2022-10-04T02:19:20;3.17;;;2.30;;
17520;SDS011;8878;-33.370;-70.552;2022-10-04T02:21:53;3.90;;;2.03;;
17520;SDS011;8878;-33.370;-70.552;2022-10-04T02:24:26;3.73;;;1.97;;
17520;SDS011;8878;-33.370;-70.552;2022-10-04T02:26:55;3.63;;;1.97;;
17520;SDS011;8878;-33.370;-70.552;2022-10-04T02:29:25;3.80;;;2.27;;
17520;SDS011;8878;-33.370;-70.552;2022-10-04T02:31:55;3.83;;;2.00;;
17520;SDS011;8878;-33.370;-70.552;2022-10-04T02:34:41;3.80;;;2.30;;
17520;SDS011;8878;-33.370;-70.552;2022-10-04T02:37:11;2.20;;;1.83;;
17520;SDS011;8878;-33.370;-70.552;2022-10-04T02:39:44;7.20;;;2.33;;
17520;SDS011;8878;-33.370;-70.552;2022-10-04T02:42:18;3.40;;;1.93;;
17520;SDS011;8878;-33.370;-70.552;2022-10-04T02:44:50;3.73;;;3.33;;
17520;SDS011;8878;-33.370;-70.552;2022-10-04T02:47:26;6.00;;;2.73;;
17520;SDS011;8878;-33.370;-70.552;2022-10-04T02:50:00;5.43;;;2.90;;
17520;SDS011;8878;-33.370;-70.552;2022-10-04T02:52:37;4.40;;;2.43;;
17520;SDS011;8878;-33.370;-70.552;2022-10-04T02:55:15;2.50;;;2.23;;
17520;SDS011;8878;-33.370;-70.552;2022-10-04T02:57:48;2.97;;;2.63;;
17520;SDS011;8878;-33.370;-70.552;2022-10-04T03:00:18;10.60;;;3.93;;
17520;SDS011;8878;-33.370;-70.552;2022-10-04T03:03:10;4.33;;;3.50;;
17520;SDS011;8878;-33.370;-70.552;2022-10-04T03:05:53;4.13;;;2.20;;
17520;SDS011;8878;-33.370;-70.552;2022-10-04T03:08:28;9.63;;;2.03;;
17520;SDS011;8878;-33.370;-70.552;2022-10-04T03:11:00;13.33;;;3.23;;
17520;SDS011;8878;-33.370;-70.552;2022-10-04T03:13:31;7.67;;;3.70;;
17520;SDS011;8878;-33.370;-70.552;2022-10-04T03:16:02;3.00;;;2.53;;
17520;SDS011;8878;-33.370;-70.552;2022-10-04T03:18:32;5.00;;;2.87;;
17520;SDS011;8878;-33.370;-70.552;2022-10-04T03:21:03;5.40;;;3.90;;
17520;SDS011;8878;-33.370;-70.552;2022-10-04T03:23:35;5.03;;;1.80;;
17520;SDS011;8878;-33.370;-70.552;2022-10-04T03:26:09;3.97;;;2.43;;
17520;SDS011;8878;-33.370;-70.552;2022-10-04T03:28:47;2.37;;;2.17;;
17520;SDS011;8878;-33.370;-70.552;2022-10-04T03:31:17;3.37;;;1.87;;
17520;SDS011;8878;-33.370;-70.552;2022-10-04T03:33:46;5.47;;;2.57;;
17520;SDS011;8878;-33.370;-70.552;2022-10-04T03:36:17;6.40;;;4.07;;
17520;SDS011;8878;-33.370;-70.552;2022-10-04T03:38:47;3.93;;;2.80;;
17520;SDS011;8878;-33.370;-70.552;2022-10-04T03:41:21;4.87;;;3.10;;
17520;SDS011;8878;-33.370;-70.552;2022-10-04T03:43:52;5.27;;;2.40;;
17520;SDS011;8878;-33.370;-70.552;2022-10-04T03:46:23;4.70;;;2.43;;
17520;SDS011;8878;-33.370;-70.552;2022-10-04T03:48:54;6.37;;;2.60;;
17520;SDS011;8878;-33.370;-70.552;2022-10-04T03:51:25;2.40;;;1.80;;
17520;SDS011;8878;-33.370;-70.552;2022-10-04T03:53:54;2.53;;;2.33;;
17520;SDS011;8878;-33.370;-70.552;2022-10-04T03:56:28;4.20;;;1.80;;
17520;SDS011;8878;-33.370;-70.552;2022-10-04T03:59:01;15.40;;;2.30;;
17520;SDS011;8878;-33.370;-70.552;2022-10-04T04:01:35;4.17;;;2.50;;
17520;SDS011;8878;-33.370;-70.552;2022-10-04T04:04:12;2.80;;;2.10;;
17520;SDS011;8878;-33.370;-70.552;2022-10-04T04:06:52;2.60;;;1.77;;
17520;SDS011;8878;-33.370;-70.552;2022-10-04T04:09:31;3.40;;;1.30;;
17520;SDS011;8878;-33.370;-70.552;2022-10-04T04:12:12;2.77;;;2.57;;
17520;SDS011;8878;-33.370;-70.552;2022-10-04T04:14:45;7.83;;;3.13;;
17520;SDS011;8878;-33.370;-70.552;2022-10-04T04:17:37;6.60;;;2.47;;
17520;SDS011;8878;-33.370;-70.552;2022-10-04T04:20:18;5.97;;;2.53;;
17520;SDS011;8878;-33.370;-70.552;2022-10-04T04:22:55;2.37;;;2.03;;
17520;SDS011;8878;-33.370;-70.552;2022-10-04T04:25:31;4.53;;;3.33;;
17520;SDS011;8878;-33.370;-70.552;2022-10-04T04:28:06;2.27;;;1.70;;
17520;SDS011;8878;-33.370;-70.552;2022-10-04T04:30:48;6.63;;;1.80;;
17520;SDS011;8878;-33.370;-70.552;2022-10-04T04:33:22;3.07;;;1.87;;
17520;SDS011;8878;-33.370;-70.552;2022-10-04T04:36:02;1.87;;;1.70;;
17520;SDS011;8878;-33.370;-70.552;2022-10-04T04:38:33;4.47;;;3.40;;
17520;SDS011;8878;-33.370;-70.552;2022-10-04T04:41:23;3.17;;;2.10;;
17520;SDS011;8878;-33.370;-70.552;2022-10-04T04:43:55;3.57;;;2.20;;
17520;SDS011;8878;-33.370;-70.552;2022-10-04T04:46:25;3.40;;;1.50;;
17520;SDS011;8878;-33.370;-70.552;2022-10-04T04:48:57;5.57;;;1.80;;
17520;SDS011;8878;-33.370;-70.552;2022-10-04T04:54:51;2.30;;;1.67;;
17520;SDS011;8878;-33.370;-70.552;2022-10-04T04:57:22;3.10;;;2.30;;
17520;SDS011;8878;-33.370;-70.552;2022-10-04T04:59:55;5.13;;;2.67;;
17520;SDS011;8878;-33.370;-70.552;2022-10-04T05:02:28;6.97;;;1.93;;
17520;SDS011;8878;-33.370;-70.552;2022-10-04T05:05:13;2.67;;;1.77;;
17520;SDS011;8878;-33.370;-70.552;2022-10-04T05:07:48;2.20;;;1.20;;
17520;SDS011;8878;-33.370;-70.552;2022-10-04T05:10:31;3.17;;;2.07;;
17520;SDS011;8878;-33.370;-70.552;2022-10-04T05:13:01;3.07;;;2.53;;
17520;SDS011;8878;-33.370;-70.552;2022-10-04T05:15:34;6.47;;;3.00;;
17520;SDS011;8878;-33.370;-70.552;2022-10-04T05:21:03;3.77;;;1.87;;
17520;SDS011;8878;-33.370;-70.552;2022-10-04T05:23:35;3.90;;;2.50;;
17520;SDS011;8878;-33.370;-70.552;2022-10-04T05:26:08;9.40;;;2.97;;
17520;SDS011;8878;-33.370;-70.552;2022-10-04T05:28:39;5.20;;;2.83;;
17520;SDS011;8878;-33.370;-70.552;2022-10-04T05:31:21;4.03;;;2.43;;
17520;SDS011;8878;-33.370;-70.552;2022-10-04T05:34:02;5.07;;;2.47;;
17520;SDS011;8878;-33.370;-70.552;2022-10-04T05:36:46;3.60;;;2.77;;
17520;SDS011;8878;-33.370;-70.552;2022-10-04T05:39:26;8.97;;;2.63;;
17520;SDS011;8878;-33.370;-70.552;2022-10-04T05:42:00;6.70;;;3.13;;
17520;SDS011;8878;-33.370;-70.552;2022-10-04T05:44:44;2.97;;;2.10;;
17520;SDS011;8878;-33.370;-70.552;2022-10-04T05:47:26;6.33;;;3.27;;
17520;SDS011;8878;-33.370;-70.552;2022-10-04T05:49:58;4.40;;;2.77;;
17520;SDS011;8878;-33.370;-70.552;2022-10-04T05:52:30;4.23;;;3.50;;
17520;SDS011;8878;-33.370;-70.552;2022-10-04T05:55:23;6.40;;;3.77;;
17520;SDS011;8878;-33.370;-70.552;2022-10-04T06:01:12;6.97;;;3.27;;
17520;SDS011;8878;-33.370;-70.552;2022-10-04T06:06:50;5.40;;;3.60;;
17520;SDS011;8878;-33.370;-70.552;2022-10-04T06:09:31;4.67;;;4.10;;
17520;SDS011;8878;-33.370;-70.552;2022-10-04T06:12:14;5.70;;;3.80;;
17520;SDS011;8878;-33.370;-70.552;2022-10-04T06:15:06;3.97;;;3.27;;
17520;SDS011;8878;-33.370;-70.552;2022-10-04T06:17:53;6.40;;;2.93;;
17520;SDS011;8878;-33.370;-70.552;2022-10-04T06:23:44;7.57;;;3.83;;
17520;SDS011;8878;-33.370;-70.552;2022-10-04T06:26:19;10.47;;;3.03;;
17520;SDS011;8878;-33.370;-70.552;2022-10-04T06:28:51;10.00;;;3.83;;
17520;SDS011;8878;-33.370;-70.552;2022-10-04T06:34:23;7.83;;;4.63;;
17520;SDS011;8878;-33.370;-70.552;2022-10-04T06:37:16;6.63;;;2.83;;
17520;SDS011;8878;-33.370;-70.552;2022-10-04T06:40:06;8.63;;;2.77;;
17520;SDS011;8878;-33.370;-70.552;2022-10-04T06:42:58;5.47;;;2.87;;
17520;SDS011;8878;-33.370;-70.552;2022-10-04T06:45:47;7.70;;;4.77;;
17520;SDS011;8878;-33.370;-70.552;2022-10-04T06:48:42;7.53;;;3.80;;
17520;SDS011;8878;-33.370;-70.552;2022-10-04T06:51:41;3.20;;;3.00;;
17520;SDS011;8878;-33.370;-70.552;2022-10-04T06:54:29;10.00;;;4.03;;
17520;SDS011;8878;-33.370;-70.552;2022-10-04T06:57:21;6.00;;;3.37;;
17520;SDS011;8878;-33.370;-70.552;2022-10-04T07:00:08;4.37;;;3.00;;
17520;SDS011;8878;-33.370;-70.552;2022-10-04T07:02:45;4.30;;;3.17;;
17520;SDS011;8878;-33.370;-70.552;2022-10-04T07:05:21;7.20;;;3.17;;
17520;SDS011;8878;-33.370;-70.552;2022-10-04T07:08:01;3.93;;;2.50;;
17520;SDS011;8878;-33.370;-70.552;2022-10-04T07:10:47;9.27;;;4.47;;
17520;SDS011;8878;-33.370;-70.552;2022-10-04T07:13:29;4.07;;;2.70;;
17520;SDS011;8878;-33.370;-70.552;2022-10-04T07:16:08;5.23;;;2.83;;
17520;SDS011;8878;-33.370;-70.552;2022-10-04T07:18:54;14.73;;;4.07;;
17520;SDS011;8878;-33.370;-70.552;2022-10-04T07:21:34;7.27;;;2.87;;
17520;SDS011;8878;-33.370;-70.552;2022-10-04T07:24:08;9.13;;;3.27;;
17520;SDS011;8878;-33.370;-70.552;2022-10-04T07:26:48;9.60;;;3.80;;
17520;SDS011;8878;-33.370;-70.552;2022-10-04T07:29:21;5.27;;;3.07;;
17520;SDS011;8878;-33.370;-70.552;2022-10-04T07:31:52;6.80;;;3.47;;
17520;SDS011;8878;-33.370;-70.552;2022-10-04T07:34:35;4.80;;;3.10;;
17520;SDS011;8878;-33.370;-70.552;2022-10-04T07:37:11;5.20;;;2.53;;
17520;SDS011;8878;-33.370;-70.552;2022-10-04T07:39:43;5.03;;;4.43;;
17520;SDS011;8878;-33.370;-70.552;2022-10-04T07:42:24;4.20;;;2.30;;
17520;SDS011;8878;-33.370;-70.552;2022-10-04T07:45:02;6.57;;;2.93;;
17520;SDS011;8878;-33.370;-70.552;2022-10-04T07:47:40;6.23;;;3.53;;
17520;SDS011;8878;-33.370;-70.552;2022-10-04T07:50:18;8.90;;;4.43;;
17520;SDS011;8878;-33.370;-70.552;2022-10-04T07:52:51;8.03;;;2.87;;
17520;SDS011;8878;-33.370;-70.552;2022-10-04T07:55:26;5.33;;;2.20;;
17520;SDS011;8878;-33.370;-70.552;2022-10-04T07:58:07;9.90;;;3.13;;
17520;SDS011;8878;-33.370;-70.552;2022-10-04T08:00:51;9.77;;;3.80;;
17520;SDS011;8878;-33.370;-70.552;2022-10-04T08:03:36;7.43;;;3.90;;
17520;SDS011;8878;-33.370;-70.552;2022-10-04T08:06:24;5.90;;;3.77;;
17520;SDS011;8878;-33.370;-70.552;2022-10-04T08:09:06;8.40;;;3.50;;
17520;SDS011;8878;-33.370;-70.552;2022-10-04T08:11:47;13.93;;;5.47;;
17520;SDS011;8878;-33.370;-70.552;2022-10-04T08:14:29;9.40;;;4.17;;
17520;SDS011;8878;-33.370;-70.552;2022-10-04T08:17:12;8.17;;;5.07;;
17520;SDS011;8878;-33.370;-70.552;2022-10-04T08:19:55;9.53;;;5.20;;
17520;SDS011;8878;-33.370;-70.552;2022-10-04T08:22:33;16.93;;;6.20;;
17520;SDS011;8878;-33.370;-70.552;2022-10-04T08:25:20;10.97;;;3.43;;
17520;SDS011;8878;-33.370;-70.552;2022-10-04T08:28:01;6.43;;;4.83;;
17520;SDS011;8878;-33.370;-70.552;2022-10-04T08:31:05;4.37;;;3.57;;
17520;SDS011;8878;-33.370;-70.552;2022-10-04T08:33:55;8.40;;;4.83;;
17520;SDS011;8878;-33.370;-70.552;2022-10-04T08:36:37;5.93;;;4.33;;
17520;SDS011;8878;-33.370;-70.552;2022-10-04T08:39:18;10.23;;;5.20;;
17520;SDS011;8878;-33.370;-70.552;2022-10-04T08:42:04;10.20;;;4.73;;
17520;SDS011;8878;-33.370;-70.552;2022-10-04T08:51:18;8.93;;;6.13;;
17520;SDS011;8878;-33.370;-70.552;2022-10-04T08:57:11;8.40;;;3.57;;
17520;SDS011;8878;-33.370;-70.552;2022-10-04T09:00:02;7.97;;;4.33;;
17520;SDS011;8878;-33.370;-70.552;2022-10-04T09:05:58;12.00;;;4.13;;
17520;SDS011;8878;-33.370;-70.552;2022-10-04T09:09:01;7.67;;;4.33;;
17520;SDS011;8878;-33.370;-70.552;2022-10-04T09:12:01;12.10;;;4.07;;
17520;SDS011;8878;-33.370;-70.552;2022-10-04T09:14:49;8.40;;;4.37;;
17520;SDS011;8878;-33.370;-70.552;2022-10-04T09:17:40;10.23;;;4.20;;
17520;SDS011;8878;-33.370;-70.552;2022-10-04T09:20:21;6.17;;;4.23;;
17520;SDS011;8878;-33.370;-70.552;2022-10-04T09:23:02;9.20;;;6.30;;
17520;SDS011;8878;-33.370;-70.552;2022-10-04T09:25:49;16.23;;;7.50;;
17520;SDS011;8878;-33.370;-70.552;2022-10-04T09:28:52;9.90;;;5.27;;
17520;SDS011;8878;-33.370;-70.552;2022-10-04T09:31:55;7.90;;;4.70;;
17520;SDS011;8878;-33.370;-70.552;2022-10-04T09:34:57;15.77;;;6.00;;
17520;SDS011;8878;-33.370;-70.552;2022-10-04T09:37:57;8.47;;;5.93;;
17520;SDS011;8878;-33.370;-70.552;2022-10-04T09:41:05;8.30;;;4.50;;
17520;SDS011;8878;-33.370;-70.552;2022-10-04T09:47:04;4.87;;;3.07;;
17520;SDS011;8878;-33.370;-70.552;2022-10-04T09:52:53;8.73;;;4.53;;
17520;SDS011;8878;-33.370;-70.552;2022-10-04T09:55:43;10.83;;;5.17;;
17520;SDS011;8878;-33.370;-70.552;2022-10-04T10:01:57;5.97;;;4.60;;
17520;SDS011;8878;-33.370;-70.552;2022-10-04T10:04:57;8.93;;;5.00;;
17520;SDS011;8878;-33.370;-70.552;2022-10-04T10:07:44;8.53;;;5.20;;
17520;SDS011;8878;-33.370;-70.552;2022-10-04T10:10:19;14.30;;;6.77;;
17520;SDS011;8878;-33.370;-70.552;2022-10-04T10:16:19;17.97;;;6.13;;
17520;SDS011;8878;-33.370;-70.552;2022-10-04T10:19:19;12.40;;;3.63;;
17520;SDS011;8878;-33.370;-70.552;2022-10-04T10:22:17;8.97;;;5.10;;
17520;SDS011;8878;-33.370;-70.552;2022-10-04T10:25:00;11.17;;;4.40;;
17520;SDS011;8878;-33.370;-70.552;2022-10-04T10:30:36;14.97;;;6.07;;
17520;SDS011;8878;-33.370;-70.552;2022-10-04T10:33:30;8.13;;;3.80;;
17520;SDS011;8878;-33.370;-70.552;2022-10-04T10:42:36;9.67;;;4.77;;
17520;SDS011;8878;-33.370;-70.552;2022-10-04T10:45:34;9.33;;;4.93;;
17520;SDS011;8878;-33.370;-70.552;2022-10-04T10:48:14;13.67;;;5.83;;
17520;SDS011;8878;-33.370;-70.552;2022-10-04T10:50:53;8.13;;;4.30;;
17520;SDS011;8878;-33.370;-70.552;2022-10-04T10:56:48;10.17;;;4.43;;
17520;SDS011;8878;-33.370;-70.552;2022-10-04T11:02:35;5.73;;;3.87;;
17520;SDS011;8878;-33.370;-70.552;2022-10-04T11:05:50;5.50;;;3.47;;
17520;SDS011;8878;-33.370;-70.552;2022-10-04T11:09:01;7.73;;;4.47;;
17520;SDS011;8878;-33.370;-70.552;2022-10-04T11:18:06;6.47;;;2.13;;
17520;SDS011;8878;-33.370;-70.552;2022-10-04T11:24:22;2.43;;;2.03;;
17520;SDS011;8878;-33.370;-70.552;2022-10-04T11:27:14;4.00;;;2.50;;
17520;SDS011;8878;-33.370;-70.552;2022-10-04T11:30:02;4.13;;;2.73;;
17520;SDS011;8878;-33.370;-70.552;2022-10-04T11:38:56;3.83;;;1.97;;
17520;SDS011;8878;-33.370;-70.552;2022-10-04T11:41:42;2.83;;;2.23;;
17520;SDS011;8878;-33.370;-70.552;2022-10-04T11:47:37;6.87;;;2.90;;
17520;SDS011;8878;-33.370;-70.552;2022-10-04T11:50:27;5.90;;;2.70;;
17520;SDS011;8878;-33.370;-70.552;2022-10-04T11:53:15;10.00;;;2.83;;
17520;SDS011;8878;-33.370;-70.552;2022-10-04T11:58:58;9.30;;;3.20;;
17520;SDS011;8878;-33.370;-70.552;2022-10-04T12:08:14;5.87;;;3.20;;
17520;SDS011;8878;-33.370;-70.552;2022-10-04T12:11:00;6.20;;;1.90;;
17520;SDS011;8878;-33.370;-70.552;2022-10-04T12:13:46;5.40;;;3.23;;
17520;SDS011;8878;-33.370;-70.552;2022-10-04T12:19:49;3.60;;;2.40;;
17520;SDS011;8878;-33.370;-70.552;2022-10-04T12:22:40;2.83;;;2.17;;
17520;SDS011;8878;-33.370;-70.552;2022-10-04T12:25:35;3.43;;;2.60;;
17520;SDS011;8878;-33.370;-70.552;2022-10-04T12:28:23;5.67;;;1.83;;
17520;SDS011;8878;-33.370;-70.552;2022-10-04T12:33:57;2.30;;;1.17;;
17520;SDS011;8878;-33.370;-70.552;2022-10-04T12:36:42;5.50;;;1.60;;
17520;SDS011;8878;-33.370;-70.552;2022-10-04T12:42:31;6.80;;;2.33;;
17520;SDS011;8878;-33.370;-70.552;2022-10-04T12:48:22;6.60;;;3.07;;
17520;SDS011;8878;-33.370;-70.552;2022-10-04T12:51:02;3.33;;;3.13;;
17520;SDS011;8878;-33.370;-70.552;2022-10-04T12:53:46;3.40;;;2.67;;
17520;SDS011;8878;-33.370;-70.552;2022-10-04T12:56:27;2.20;;;2.00;;
17520;SDS011;8878;-33.370;-70.552;2022-10-04T12:59:19;6.83;;;3.40;;
17520;SDS011;8878;-33.370;-70.552;2022-10-04T13:02:03;19.33;;;1.77;;
17520;SDS011;8878;-33.370;-70.552;2022-10-04T13:04:46;5.10;;;2.50;;
17520;SDS011;8878;-33.370;-70.552;2022-10-04T13:13:49;9.53;;;3.77;;
17520;SDS011;8878;-33.370;-70.552;2022-10-04T13:16:48;4.93;;;1.93;;
17520;SDS011;8878;-33.370;-70.552;2022-10-04T13:19:25;5.47;;;2.97;;
17520;SDS011;8878;-33.370;-70.552;2022-10-04T13:22:05;3.97;;;2.73;;
17520;SDS011;8878;-33.370;-70.552;2022-10-04T13:25:00;3.23;;;2.47;;
17520;SDS011;8878;-33.370;-70.552;2022-10-04T13:27:47;3.37;;;2.80;;
17520;SDS011;8878;-33.370;-70.552;2022-10-04T13:30:20;8.53;;;4.37;;
17520;SDS011;8878;-33.370;-70.552;2022-10-04T13:35:48;6.07;;;2.93;;
17520;SDS011;8878;-33.370;-70.552;2022-10-04T13:38:28;20.77;;;2.57;;
17520;SDS011;8878;-33.370;-70.552;2022-10-04T13:41:18;10.57;;;2.53;;
17520;SDS011;8878;-33.370;-70.552;2022-10-04T13:44:06;9.67;;;3.47;;
17520;SDS011;8878;-33.370;-70.552;2022-10-04T13:47:02;2.60;;;2.40;;
17520;SDS011;8878;-33.370;-70.552;2022-10-04T13:49:53;9.43;;;3.80;;
17520;SDS011;8878;-33.370;-70.552;2022-10-04T13:52:39;5.23;;;3.70;;
17520;SDS011;8878;-33.370;-70.552;2022-10-04T13:55:32;6.50;;;3.43;;
17520;SDS011;8878;-33.370;-70.552;2022-10-04T13:58:27;3.80;;;3.00;;
17520;SDS011;8878;-33.370;-70.552;2022-10-04T14:01:20;3.97;;;3.47;;
17520;SDS011;8878;-33.370;-70.552;2022-10-04T14:04:15;4.43;;;2.80;;
17520;SDS011;8878;-33.370;-70.552;2022-10-04T14:13:11;4.63;;;3.50;;
17520;SDS011;8878;-33.370;-70.552;2022-10-04T14:23:04;7.10;;;3.23;;
17520;SDS011;8878;-33.370;-70.552;2022-10-04T14:28:56;5.30;;;3.77;;
17520;SDS011;8878;-33.370;-70.552;2022-10-04T14:31:57;4.43;;;2.93;;
17520;SDS011;8878;-33.370;-70.552;2022-10-04T14:34:53;8.23;;;3.23;;
17520;SDS011;8878;-33.370;-70.552;2022-10-04T14:37:34;12.47;;;4.20;;
17520;SDS011;8878;-33.370;-70.552;2022-10-04T14:40:31;8.63;;;3.33;;
17520;SDS011;8878;-33.370;-70.552;2022-10-04T14:43:18;11.33;;;3.30;;
17520;SDS011;8878;-33.370;-70.552;2022-10-04T14:46:13;6.57;;;3.73;;
17520;SDS011;8878;-33.370;-70.552;2022-10-04T14:49:00;6.90;;;3.43;;
17520;SDS011;8878;-33.370;-70.552;2022-10-04T14:54:40;6.93;;;4.50;;
17520;SDS011;8878;-33.370;-70.552;2022-10-04T14:57:20;7.57;;;3.17;;
17520;SDS011;8878;-33.370;-70.552;2022-10-04T15:00:09;7.60;;;3.37;;
17520;SDS011;8878;-33.370;-70.552;2022-10-04T15:02:55;7.83;;;4.53;;
17520;SDS011;8878;-33.370;-70.552;2022-10-04T15:05:42;13.43;;;4.43;;
17520;SDS011;8878;-33.370;-70.552;2022-10-04T15:08:54;9.73;;;3.83;;
17520;SDS011;8878;-33.370;-70.552;2022-10-04T15:11:37;6.83;;;5.07;;
17520;SDS011;8878;-33.370;-70.552;2022-10-04T15:14:21;5.80;;;3.80;;
17520;SDS011;8878;-33.370;-70.552;2022-10-04T15:17:01;7.60;;;3.93;;
17520;SDS011;8878;-33.370;-70.552;2022-10-04T15:19:43;14.87;;;3.77;;
17520;SDS011;8878;-33.370;-70.552;2022-10-04T15:22:26;9.43;;;5.73;;
17520;SDS011;8878;-33.370;-70.552;2022-10-04T15:25:34;14.13;;;5.40;;
17520;SDS011;8878;-33.370;-70.552;2022-10-04T15:28:10;8.10;;;4.07;;
17520;SDS011;8878;-33.370;-70.552;2022-10-04T15:31:03;6.27;;;3.40;;
17520;SDS011;8878;-33.370;-70.552;2022-10-04T15:33:41;14.87;;;6.00;;
17520;SDS011;8878;-33.370;-70.552;2022-10-04T15:36:29;5.77;;;4.07;;
17520;SDS011;8878;-33.370;-70.552;2022-10-04T15:39:27;5.97;;;3.33;;
17520;SDS011;8878;-33.370;-70.552;2022-10-04T15:42:20;6.63;;;4.10;;
17520;SDS011;8878;-33.370;-70.552;2022-10-04T15:48:09;10.43;;;3.80;;
17520;SDS011;8878;-33.370;-70.552;2022-10-04T15:51:02;4.97;;;3.93;;
17520;SDS011;8878;-33.370;-70.552;2022-10-04T15:53:42;9.80;;;4.57;;
17520;SDS011;8878;-33.370;-70.552;2022-10-04T15:56:29;11.00;;;5.30;;
17520;SDS011;8878;-33.370;-70.552;2022-10-04T16:02:18;12.73;;;4.77;;
17520;SDS011;8878;-33.370;-70.552;2022-10-04T16:05:14;11.87;;;5.03;;
17520;SDS011;8878;-33.370;-70.552;2022-10-04T16:11:08;7.88;;;4.32;;
17520;SDS011;8878;-33.370;-70.552;2022-10-04T16:17:12;9.37;;;4.70;;
17520;SDS011;8878;-33.370;-70.552;2022-10-04T16:20:13;14.38;;;6.85;;
17520;SDS011;8878;-33.370;-70.552;2022-10-04T16:23:25;15.77;;;6.50;;
17520;SDS011;8878;-33.370;-70.552;2022-10-04T16:25:57;24.27;;;6.70;;
17520;SDS011;8878;-33.370;-70.552;2022-10-04T16:31:23;6.88;;;3.85;;
17520;SDS011;8878;-33.370;-70.552;2022-10-04T16:34:08;12.80;;;5.57;;
17520;SDS011;8878;-33.370;-70.552;2022-10-04T16:37:16;9.25;;;5.38;;
17520;SDS011;8878;-33.370;-70.552;2022-10-04T16:39:55;16.88;;;6.82;;
17520;SDS011;8878;-33.370;-70.552;2022-10-04T16:42:33;13.85;;;6.07;;
17520;SDS011;8878;-33.370;-70.552;2022-10-04T16:45:37;11.30;;;5.90;;
17520;SDS011;8878;-33.370;-70.552;2022-10-04T16:54:04;15.27;;;6.38;;
17520;SDS011;8878;-33.370;-70.552;2022-10-04T16:59:46;10.70;;;5.05;;
17520;SDS011;8878;-33.370;-70.552;2022-10-04T17:02:22;13.52;;;5.93;;
17520;SDS011;8878;-33.370;-70.552;2022-10-04T17:05:13;14.80;;;6.18;;
17520;SDS011;8878;-33.370;-70.552;2022-10-04T17:08:16;8.65;;;4.70;;
17520;SDS011;8878;-33.370;-70.552;2022-10-04T17:11:10;16.70;;;6.15;;
17520;SDS011;8878;-33.370;-70.552;2022-10-04T17:14:00;13.68;;;4.88;;
17520;SDS011;8878;-33.370;-70.552;2022-10-04T17:16:47;12.65;;;5.47;;
17520;SDS011;8878;-33.370;-70.552;2022-10-04T17:19:28;10.43;;;6.38;;
17520;SDS011;8878;-33.370;-70.552;2022-10-04T17:22:06;13.02;;;5.53;;
17520;SDS011;8878;-33.370;-70.552;2022-10-04T17:24:51;9.38;;;4.45;;
17520;SDS011;8878;-33.370;-70.552;2022-10-04T17:27:42;11.63;;;5.47;;
17520;SDS011;8878;-33.370;-70.552;2022-10-04T17:30:14;14.43;;;7.10;;
17520;SDS011;8878;-33.370;-70.552;2022-10-04T17:32:49;16.08;;;6.13;;
17520;SDS011;8878;-33.370;-70.552;2022-10-04T17:39:01;12.55;;;5.43;;
17520;SDS011;8878;-33.370;-70.552;2022-10-04T17:41:49;8.88;;;5.18;;
17520;SDS011;8878;-33.370;-70.552;2022-10-04T17:44:35;10.15;;;5.40;;
17520;SDS011;8878;-33.370;-70.552;2022-10-04T17:47:12;14.18;;;7.20;;
17520;SDS011;8878;-33.370;-70.552;2022-10-04T17:49:50;12.65;;;6.05;;
17520;SDS011;8878;-33.370;-70.552;2022-10-04T17:52:43;14.05;;;5.55;;
17520;SDS011;8878;-33.370;-70.552;2022-10-04T17:55:35;12.25;;;5.38;;
17520;SDS011;8878;-33.370;-70.552;2022-10-04T17:58:13;13.65;;;6.00;;
17520;SDS011;8878;-33.370;-70.552;2022-10-04T18:00:49;13.43;;;6.25;;
17520;SDS011;8878;-33.370;-70.552;2022-10-04T18:03:25;16.83;;;6.68;;
17520;SDS011;8878;-33.370;-70.552;2022-10-04T18:06:10;15.77;;;5.95;;
17520;SDS011;8878;-33.370;-70.552;2022-10-04T18:08:50;14.95;;;6.65;;
17520;SDS011;8878;-33.370;-70.552;2022-10-04T18:11:24;9.45;;;5.88;;
17520;SDS011;8878;-33.370;-70.552;2022-10-04T18:14:02;14.57;;;6.43;;
17520;SDS011;8878;-33.370;-70.552;2022-10-04T18:16:44;11.27;;;5.35;;
17520;SDS011;8878;-33.370;-70.552;2022-10-04T18:19:32;13.35;;;6.50;;
17520;SDS011;8878;-33.370;-70.552;2022-10-04T18:22:10;12.07;;;5.28;;
17520;SDS011;8878;-33.370;-70.552;2022-10-04T18:24:41;12.15;;;6.75;;
17520;SDS011;8878;-33.370;-70.552;2022-10-04T18:27:16;15.38;;;6.00;;
17520;SDS011;8878;-33.370;-70.552;2022-10-04T18:29:56;14.98;;;6.53;;
17520;SDS011;8878;-33.370;-70.552;2022-10-04T18:32:40;18.00;;;6.75;;
17520;SDS011;8878;-33.370;-70.552;2022-10-04T18:35:20;13.90;;;6.55;;